This is the latest recevied weather packets stored in our database for station/object DH1NAI-6. If no packets are shown the sender has not sent any weather packets the latest 10 day(s).
| Time | Temp. | Humidity | Pressure | Rain* | Wind** | Luminosity | Snow |
|---|---|---|---|---|---|---|---|
| 1788018115 | 20.56° C | 65% | 1013.4 hPa | 0 mm | - | 22 W/m² | - |
| 1788017508 | 20.56° C | 64% | 1013.4 hPa | 0 mm | - | 37 W/m² | - |
| 1788016892 | 20.56° C | 66% | 1013.6 hPa | 0 mm | - | 48 W/m² | - |
| 1788016292 | 20° C | 65% | 1013.5 hPa | 0 mm | - | 31 W/m² | - |
| 1788015683 | 20° C | 66% | 1013.6 hPa | 0 mm | - | 28 W/m² | - |
| 1788015059 | 21.11° C | 63% | 1013.6 hPa | 0 mm | - | 33 W/m² | - |
| 1788014435 | 21.11° C | 65% | 1013.6 hPa | 0 mm | - | 36 W/m² | - |
| 1788013827 | 20° C | 67% | 1013.6 hPa | 0 mm | - | 30 W/m² | - |
| 1788013220 | 21.11° C | 65% | 1013.5 hPa | 0 mm | - | 38 W/m² | - |
| 1788012611 | 21.11° C | 67% | 1013.5 hPa | 0 mm | - | 47 W/m² | - |
| 1788012005 | 20° C | 68% | 1013.7 hPa | 0 mm | - | 32 W/m² | - |
| 1788011395 | 21.67° C | 63% | 1013.6 hPa | 0 mm | - | 151 W/m² | - |
| 1788010788 | 21.67° C | 62% | 1013.7 hPa | 0 mm | - | 55 W/m² | - |
| 1788010172 | 20° C | 66% | 1013.9 hPa | 0 mm | - | 36 W/m² | - |
| 1788009572 | 20° C | 67% | 1013.7 hPa | 0 mm | - | 180 W/m² | - |
| 1788008963 | 20.56° C | 66% | 1013.9 hPa | 0 mm | - | 49 W/m² | - |
| 1788008339 | 21.67° C | 63% | 1014 hPa | 0 mm | - | 141 W/m² | - |
| 1788007715 | 20.56° C | 68% | 1013.7 hPa | 0 mm | - | 60 W/m² | - |
| 1788007107 | 20.56° C | 68% | 1014 hPa | 0 mm | - | 52 W/m² | - |
| 1788006500 | 20.56° C | 67% | 1013.9 hPa | 0 mm | - | 69 W/m² | - |
| 1788005891 | 20.56° C | 68% | 1014.1 hPa | 0 mm | - | 218 W/m² | - |
| 1788005283 | 21.11° C | 66% | 1014.2 hPa | 0 mm | - | 184 W/m² | - |
| 1788004675 | 20.56° C | 67% | 1014.1 hPa | 0 mm | - | 182 W/m² | - |
| 1788004067 | 21.11° C | 67% | 1014.1 hPa | 0 mm | - | 172 W/m² | - |
| 1788003460 | 21.11° C | 66% | 1014.4 hPa | 0 mm | - | 172 W/m² | - |
* Rain latest hour (hover to see other rain measurements)
** Current wind speed in m/s (hover to see current wind gust speed)